Time;durP1;ratioP1;P1;durP2;ratioP2;P2;SDS_P1;SDS_P2;PMS_P1;PMS_P2;Temp;Humidity;BMP_temperature;BMP_pressure;BME280_temperature;BME280_humidity;BME280_pressure;Samples;Min_cycle;Max_cycle;Signal;HPM_P1;HPM_P2
2022/01/30 00:02:02;;;;;;;6.57;2.30;;;17.60;54.20;;;;;;5056118;28;20171;-59
2022/01/30 00:04:28;;;;;;;5.80;2.25;;;17.60;54.00;;;;;;5055599;28;20186;-60
2022/01/30 00:06:53;;;;;;;5.05;2.53;;;17.60;54.10;;;;;;5055853;28;20723;-59
2022/01/30 00:09:22;;;;;;;6.10;2.10;;;17.50;54.00;;;;;;5056089;28;20514;-60
2022/01/30 00:11:53;;;;;;;5.00;2.22;;;17.50;54.10;;;;;;5055550;28;20183;-60
2022/01/30 00:14:20;;;;;;;6.53;2.20;;;17.50;54.10;;;;;;5056135;28;20172;-60
2022/01/30 00:16:48;;;;;;;5.78;2.33;;;17.60;54.20;;;;;;5055990;28;20237;-60
2022/01/30 00:19:22;;;;;;;6.90;3.30;;;17.50;54.10;;;;;;5054852;28;20183;-60
2022/01/30 00:21:58;;;;;;;6.10;2.03;;;17.50;54.20;;;;;;5055804;28;20626;-60
2022/01/30 00:24:43;;;;;;;6.32;2.33;;;17.50;54.20;;;;;;5055189;28;20178;-60
2022/01/30 00:27:15;;;;;;;4.60;1.95;;;17.50;54.20;;;;;;5055682;28;20214;-59
2022/01/30 00:29:41;;;;;;;6.15;2.28;;;17.50;54.10;;;;;;5055656;28;20543;-60
2022/01/30 00:32:06;;;;;;;7.32;2.67;;;17.50;54.20;;;;;;5054662;28;20176;-59
2022/01/30 00:34:32;;;;;;;4.78;2.15;;;17.40;54.10;;;;;;5055668;28;20175;-59
2022/01/30 00:36:58;;;;;;;4.18;2.05;;;17.40;54.10;;;;;;5055502;28;20237;-59
2022/01/30 00:39:23;;;;;;;7.97;2.80;;;17.40;54.10;;;;;;5054097;28;20171;-60
2022/01/30 00:41:48;;;;;;;4.75;2.30;;;17.40;54.20;;;;;;5054915;28;20171;-59
2022/01/30 00:44:14;;;;;;;5.10;2.08;;;17.40;54.10;;;;;;5055254;28;20167;-59
2022/01/30 00:46:41;;;;;;;8.93;2.92;;;17.40;54.20;;;;;;5054565;28;20676;-59
2022/01/30 00:49:06;;;;;;;6.35;2.33;;;17.40;54.10;;;;;;5055198;28;20256;-59
2022/01/30 00:51:34;;;;;;;5.05;2.38;;;17.40;54.00;;;;;;5055321;28;20231;-59
2022/01/30 00:53:59;;;;;;;5.90;2.33;;;17.40;54.10;;;;;;5054331;28;20588;-59
2022/01/30 00:56:25;;;;;;;5.80;2.13;;;17.40;54.00;;;;;;5055341;28;20630;-59
2022/01/30 00:58:50;;;;;;;5.03;2.33;;;17.40;54.10;;;;;;5055419;28;20186;-60
2022/01/30 01:01:16;;;;;;;4.70;2.28;;;17.30;54.00;;;;;;5054038;28;20198;-60
2022/01/30 01:03:41;;;;;;;7.82;2.55;;;17.30;54.10;;;;;;5055262;28;20205;-59
2022/01/30 01:06:07;;;;;;;6.53;2.25;;;17.30;54.00;;;;;;5054810;28;20650;-59
2022/01/30 01:08:46;;;;;;;6.63;2.38;;;17.30;54.10;;;;;;5054176;28;20182;-59
2022/01/30 01:24:42;;;;;;;6.88;2.35;;;17.30;54.00;;;;;;5054669;28;20178;-59
2022/01/30 01:27:08;;;;;;;5.75;2.60;;;17.30;54.10;;;;;;5054381;28;20215;-60
2022/01/30 01:29:33;;;;;;;6.32;2.75;;;17.20;53.90;;;;;;5053757;28;20168;-60
2022/01/30 01:31:59;;;;;;;5.20;2.17;;;17.20;54.60;;;;;;5054264;28;20236;-59
2022/01/30 01:34:36;;;;;;;6.03;2.40;;;17.20;54.00;;;;;;5054403;28;20695;-59
2022/01/30 01:37:02;;;;;;;6.60;2.25;;;17.20;53.90;;;;;;5053775;28;20248;-59
2022/01/30 01:39:28;;;;;;;5.00;2.55;;;17.20;53.90;;;;;;5054593;28;20187;-60
2022/01/30 01:41:54;;;;;;;5.22;2.67;;;17.20;54.00;;;;;;5053202;28;20626;-59
2022/01/30 01:44:30;;;;;;;7.35;2.38;;;17.20;53.90;;;;;;5054342;28;20187;-59
2022/01/30 01:46:56;;;;;;;5.85;2.60;;;17.20;53.90;;;;;;5053132;28;20202;-59
2022/01/30 01:49:27;;;;;;;6.20;2.30;;;17.20;54.00;;;;;;5053588;28;20257;-59
2022/01/30 01:52:14;;;;;;;6.15;2.53;;;17.10;53.90;;;;;;5053468;28;20218;-59
2022/01/30 01:54:39;;;;;;;5.25;2.65;;;17.10;53.90;;;;;;5053239;28;20175;-59
2022/01/30 01:57:04;;;;;;;5.05;1.80;;;17.10;53.90;;;;;;5053043;28;20179;-60
2022/01/30 01:59:30;;;;;;;7.07;2.67;;;17.10;53.90;;;;;;5053885;28;20638;-60
2022/01/30 02:01:58;;;;;;;8.73;2.80;;;17.10;53.80;;;;;;5052509;28;20276;-59
2022/01/30 02:04:24;;;;;;;5.97;2.95;;;17.10;53.90;;;;;;5053346;28;20182;-60
2022/01/30 02:06:57;;;;;;;5.72;2.33;;;17.10;53.90;;;;;;5053954;28;20207;-59
2022/01/30 02:09:28;;;;;;;5.60;2.22;;;17.10;53.90;;;;;;5052719;28;20171;-59
2022/01/30 02:11:55;;;;;;;6.18;2.38;;;17.10;53.90;;;;;;5052956;28;20206;-59
2022/01/30 02:14:31;;;;;;;4.95;2.08;;;17.10;53.90;;;;;;5053786;28;20172;-60
2022/01/30 02:25:33;;;;;;;6.53;2.38;;;17.10;53.90;;;;;;5052605;28;20178;-60
2022/01/30 02:28:01;;;;;;;4.30;2.05;;;17.00;53.80;;;;;;5053203;28;20210;-60
2022/01/30 02:30:32;;;;;;;4.88;2.00;;;17.00;53.70;;;;;;5053547;28;20174;-59
2022/01/30 02:32:58;;;;;;;6.32;2.35;;;17.00;53.80;;;;;;5052344;28;20258;-60
2022/01/30 02:35:24;;;;;;;4.90;1.75;;;17.00;53.70;;;;;;5053544;28;20266;-59
2022/01/30 02:37:52;;;;;;;5.05;2.17;;;17.00;53.80;;;;;;5053394;28;20649;-59
2022/01/30 02:40:18;;;;;;;4.55;2.17;;;17.00;53.80;;;;;;5052447;28;20649;-60
2022/01/30 02:42:48;;;;;;;4.78;2.20;;;17.00;53.80;;;;;;5053264;28;20171;-60
2022/01/30 02:45:15;;;;;;;4.57;2.00;;;17.00;53.80;;;;;;5052179;28;20254;-59
2022/01/30 02:47:54;;;;;;;4.88;2.20;;;17.00;53.70;;;;;;5053304;28;20404;-59
2022/01/30 02:50:33;;;;;;;5.43;1.95;;;17.00;53.70;;;;;;5053318;28;20182;-60
2022/01/30 02:52:58;;;;;;;5.10;2.40;;;17.00;53.80;;;;;;5052020;28;20305;-59
2022/01/30 02:55:24;;;;;;;5.85;2.10;;;17.00;53.70;;;;;;5053042;28;20202;-60
2022/01/30 02:57:50;;;;;;;5.63;2.22;;;17.00;53.80;;;;;;5052858;28;20601;-60
2022/01/30 03:00:15;;;;;;;5.10;2.33;;;16.90;53.80;;;;;;5052044;28;20273;-60
2022/01/30 03:02:41;;;;;;;4.95;2.25;;;16.90;53.70;;;;;;5052539;28;20171;-60
2022/01/30 03:05:06;;;;;;;4.95;2.35;;;16.90;53.70;;;;;;5052693;28;20175;-59
2022/01/30 03:07:32;;;;;;;4.68;2.05;;;16.90;53.70;;;;;;5052201;28;20223;-60
2022/01/30 03:09:57;;;;;;;5.28;2.63;;;16.90;53.70;;;;;;5052749;28;20172;-60
2022/01/30 03:12:23;;;;;;;4.10;2.25;;;16.90;53.70;;;;;;5052692;28;20175;-60
2022/01/30 03:14:48;;;;;;;4.60;2.03;;;16.90;53.80;;;;;;5052262;28;20174;-60
2022/01/30 03:17:14;;;;;;;4.47;2.17;;;16.90;53.70;;;;;;5052413;28;20178;-60
2022/01/30 03:19:39;;;;;;;4.40;2.00;;;16.90;53.70;;;;;;5052664;28;20521;-60
2022/01/30 03:22:05;;;;;;;3.55;1.98;;;16.90;53.70;;;;;;5051578;28;20167;-60
2022/01/30 03:24:35;;;;;;;5.72;2.20;;;16.90;53.70;;;;;;5052650;28;20178;-59
2022/01/30 03:27:01;;;;;;;4.97;2.13;;;16.80;53.70;;;;;;5052197;28;20290;-59
2022/01/30 03:29:26;;;;;;;4.63;1.88;;;16.90;53.80;;;;;;5052176;28;20258;-60
2022/01/30 03:31:52;;;;;;;4.15;1.92;;;16.90;53.80;;;;;;5053024;28;20175;-59
2022/01/30 03:34:17;;;;;;;5.68;1.90;;;16.90;53.70;;;;;;5051909;28;20177;-59
2022/01/30 03:36:43;;;;;;;4.85;2.17;;;16.80;53.70;;;;;;5052689;28;20167;-60
2022/01/30 03:39:09;;;;;;;3.95;2.35;;;16.80;53.70;;;;;;5052233;28;20640;-59
2022/01/30 03:41:34;;;;;;;5.00;2.05;;;16.80;53.70;;;;;;5051779;28;20183;-59
2022/01/30 03:44:00;;;;;;;4.28;1.90;;;16.80;53.70;;;;;;5052463;28;20266;-59
2022/01/30 03:46:25;;;;;;;5.13;1.90;;;16.80;54.30;;;;;;5052573;28;20286;-59
2022/01/30 03:48:51;;;;;;;5.72;2.47;;;16.80;53.70;;;;;;5051773;28;20266;-59
2022/01/30 03:51:16;;;;;;;4.13;2.20;;;16.80;53.70;;;;;;5052175;28;20222;-59
2022/01/30 03:53:42;;;;;;;5.25;2.00;;;16.80;53.80;;;;;;5052639;28;20179;-59
2022/01/30 03:56:08;;;;;;;4.25;2.17;;;16.80;53.70;;;;;;5051329;28;20183;-60
2022/01/30 03:58:33;;;;;;;4.25;1.92;;;16.80;53.70;;;;;;5051189;28;20583;-60
2022/01/30 04:01:00;;;;;;;3.45;1.70;;;16.80;53.70;;;;;;5052204;28;20203;-59
2022/01/30 04:03:25;;;;;;;3.67;1.85;;;16.80;53.70;;;;;;5051578;28;20175;-60
2022/01/30 04:05:51;;;;;;;4.00;1.88;;;16.70;53.70;;;;;;5052345;28;20626;-59
2022/01/30 04:08:17;;;;;;;4.63;2.03;;;16.80;53.80;;;;;;5052014;28;20214;-60
2022/01/30 04:10:43;;;;;;;3.72;1.77;;;16.70;53.70;;;;;;5051466;28;20183;-59
2022/01/30 04:13:08;;;;;;;3.55;1.60;;;16.70;53.70;;;;;;5052198;28;20179;-60
2022/01/30 04:15:34;;;;;;;4.35;2.17;;;16.70;53.70;;;;;;5055206;28;20672;-60
2022/01/30 04:18:01;;;;;;;3.22;1.75;;;16.70;54.30;;;;;;5054923;28;20579;-59
2022/01/30 04:20:27;;;;;;;4.20;1.65;;;16.70;53.70;;;;;;5056096;28;20186;-60
2022/01/30 04:22:53;;;;;;;4.20;1.90;;;16.70;53.70;;;;;;5055731;28;20179;-59
2022/01/30 04:25:19;;;;;;;4.25;1.65;;;16.70;53.70;;;;;;5054956;28;20594;-60
2022/01/30 04:27:44;;;;;;;3.50;1.60;;;16.70;53.70;;;;;;5055791;28;20688;-60
2022/01/30 04:30:11;;;;;;;5.70;2.30;;;16.70;53.60;;;;;;5055508;28;20175;-60
2022/01/30 04:32:41;;;;;;;3.10;1.38;;;16.70;53.60;;;;;;5055023;28;20182;-60
2022/01/30 04:35:12;;;;;;;3.40;1.60;;;16.70;53.70;;;;;;5055388;28;20179;-59
2022/01/30 04:56:55;;;;;;;4.55;1.90;;;16.60;53.70;;;;;;5055238;28;20689;-60
2022/01/30 04:59:47;;;;;;;4.82;2.25;;;16.60;53.70;;;;;;5054617;28;20186;-60
2022/01/30 05:02:45;;;;;;;4.30;2.25;;;16.60;53.70;;;;;;5054929;28;20194;-59
2022/01/30 05:07:57;;;;;;;4.13;1.55;;;16.60;53.60;;;;;;5053959;28;20225;-58
2022/01/30 05:10:22;;;;;;;2.65;1.50;;;16.60;53.60;;;;;;5055216;28;20201;-60
2022/01/30 05:12:52;;;;;;;2.47;1.60;;;16.50;53.60;;;;;;5054133;28;20632;-60
2022/01/30 05:15:19;;;;;;;4.00;2.00;;;16.60;53.70;;;;;;5054937;28;20229;-61
2022/01/30 05:17:45;;;;;;;3.97;1.77;;;16.50;53.70;;;;;;5055015;28;20179;-60
2022/01/30 05:20:11;;;;;;;4.80;1.70;;;16.50;53.60;;;;;;5053902;28;20693;-59
2022/01/30 05:22:37;;;;;;;3.88;2.00;;;16.60;53.70;;;;;;5054797;28;20204;-60
2022/01/30 05:25:03;;;;;;;4.68;2.30;;;16.50;53.60;;;;;;5054353;28;20586;-60
2022/01/30 05:27:28;;;;;;;3.15;1.30;;;16.50;53.70;;;;;;5053225;28;20203;-60
2022/01/30 05:29:54;;;;;;;5.82;2.08;;;16.50;53.70;;;;;;5054149;28;20642;-59
2022/01/30 05:32:20;;;;;;;5.75;2.10;;;16.50;53.60;;;;;;5054805;28;20182;-59
2022/01/30 05:34:45;;;;;;;4.78;1.90;;;16.50;53.70;;;;;;5054008;28;20543;-60
2022/01/30 05:37:12;;;;;;;3.42;1.45;;;16.50;53.70;;;;;;5054350;28;20175;-59
2022/01/30 05:39:37;;;;;;;4.45;2.00;;;16.50;53.70;;;;;;5054393;28;20182;-59
2022/01/30 05:42:03;;;;;;;4.22;1.60;;;16.50;53.70;;;;;;5053452;28;20171;-59
2022/01/30 05:44:45;;;;;;;5.18;1.88;;;16.50;53.60;;;;;;5054268;28;20630;-59
2022/01/30 05:47:14;;;;;;;4.85;1.52;;;16.50;53.70;;;;;;5053924;28;20222;-59
2022/01/30 05:49:40;;;;;;;4.13;1.98;;;16.50;53.70;;;;;;5053712;28;20266;-59
2022/01/30 05:52:06;;;;;;;3.83;1.85;;;16.50;53.70;;;;;;5053715;28;20320;-59
2022/01/30 05:54:31;;;;;;;4.72;1.88;;;16.50;53.70;;;;;;5054153;28;20221;-60
2022/01/30 05:56:57;;;;;;;2.55;1.38;;;16.50;53.70;;;;;;5053024;28;20264;-60
2022/01/30 05:59:22;;;;;;;3.40;1.50;;;16.50;53.70;;;;;;5054035;28;20175;-60
2022/01/30 06:01:48;;;;;;;4.20;1.60;;;16.50;53.70;;;;;;5054020;28;20622;-58
2022/01/30 06:04:13;;;;;;;3.80;1.98;;;16.50;53.70;;;;;;5053013;28;20202;-59
2022/01/30 06:06:47;;;;;;;3.72;1.70;;;16.40;53.70;;;;;;5053910;28;20210;-59
2022/01/30 06:11:41;;;;;;;3.53;1.98;;;16.40;53.60;;;;;;5053743;28;20178;-58
2022/01/30 06:14:07;;;;;;;3.35;1.75;;;16.40;53.70;;;;;;5053427;28;20171;-60
2022/01/30 06:16:32;;;;;;;3.05;1.50;;;16.40;53.70;;;;;;5053161;28;20183;-60
2022/01/30 06:18:58;;;;;;;4.53;1.70;;;16.40;53.60;;;;;;5053398;28;20176;-60
2022/01/30 06:21:23;;;;;;;3.58;1.63;;;16.40;53.70;;;;;;5053645;28;20266;-60
2022/01/30 06:23:49;;;;;;;5.07;1.73;;;16.40;53.70;;;;;;5052964;28;20545;-59
2022/01/30 06:26:14;;;;;;;3.13;1.83;;;16.40;53.70;;;;;;5053117;28;20633;-59
2022/01/30 06:28:40;;;;;;;6.50;2.28;;;16.40;53.70;;;;;;5053751;28;20178;-59
2022/01/30 06:31:06;;;;;;;4.22;1.60;;;16.40;53.70;;;;;;5051245;28;20178;-59
2022/01/30 06:33:31;;;;;;;5.22;1.77;;;16.40;53.80;;;;;;5053604;28;20179;-60
2022/01/30 06:35:57;;;;;;;2.80;1.50;;;16.40;53.70;;;;;;5053049;28;20171;-59
2022/01/30 06:38:22;;;;;;;5.88;2.20;;;16.30;53.70;;;;;;5052705;28;20695;-59
2022/01/30 06:40:48;;;;;;;4.65;1.73;;;16.30;53.70;;;;;;5053275;28;20182;-59
2022/01/30 06:43:13;;;;;;;3.75;1.67;;;16.30;53.70;;;;;;5053158;28;20179;-59
2022/01/30 06:45:42;;;;;;;4.00;1.70;;;16.30;53.70;;;;;;5052677;28;20175;-59
2022/01/30 06:48:07;;;;;;;4.22;1.65;;;16.30;53.60;;;;;;5052974;28;20218;-59
2022/01/30 06:50:33;;;;;;;3.55;1.50;;;16.40;53.70;;;;;;5053248;28;20171;-59
2022/01/30 06:52:58;;;;;;;5.03;2.03;;;16.30;53.70;;;;;;5051956;28;20231;-59
2022/01/30 06:55:24;;;;;;;4.13;1.77;;;16.30;53.70;;;;;;5052922;28;20163;-60
2022/01/30 06:57:49;;;;;;;3.83;1.98;;;16.30;53.70;;;;;;5053158;28;20186;-60
2022/01/30 07:00:15;;;;;;;3.00;1.80;;;16.30;53.70;;;;;;5052075;28;20188;-59
2022/01/30 07:02:40;;;;;;;4.07;1.77;;;16.30;53.70;;;;;;5053068;28;20179;-59
2022/01/30 07:05:06;;;;;;;2.95;1.73;;;16.30;53.70;;;;;;5052743;28;20208;-59
2022/01/30 07:07:32;;;;;;;3.10;1.80;;;16.30;53.70;;;;;;5052014;28;20403;-59
2022/01/30 07:09:57;;;;;;;5.15;1.85;;;16.30;53.70;;;;;;5052455;28;20179;-59
2022/01/30 07:12:23;;;;;;;4.32;1.88;;;16.30;53.70;;;;;;5052266;28;20178;-59
2022/01/30 07:14:48;;;;;;;4.18;1.65;;;16.40;53.70;;;;;;5052746;28;20171;-60
2022/01/30 07:17:14;;;;;;;4.78;2.00;;;16.40;53.60;;;;;;5052390;28;20764;-59
2022/01/30 07:19:39;;;;;;;4.55;1.92;;;16.40;53.60;;;;;;5052051;28;20262;-59
2022/01/30 07:22:05;;;;;;;4.28;2.13;;;16.40;53.40;;;;;;5052613;28;20206;-59
2022/01/30 07:24:30;;;;;;;3.25;1.50;;;16.40;53.40;;;;;;5052638;28;20258;-59
2022/01/30 07:26:56;;;;;;;3.28;1.90;;;16.50;53.50;;;;;;5051738;28;20297;-58
2022/01/30 07:29:22;;;;;;;4.45;2.00;;;16.40;53.40;;;;;;5052764;28;20171;-60
2022/01/30 07:31:47;;;;;;;4.88;1.77;;;16.40;53.40;;;;;;5052922;28;20262;-59
2022/01/30 07:34:13;;;;;;;5.55;2.15;;;16.40;53.50;;;;;;5051693;28;20288;-59
2022/01/30 07:36:38;;;;;;;5.10;1.55;;;16.40;53.60;;;;;;5052608;28;20682;-59
2022/01/30 07:39:07;;;;;;;3.38;1.67;;;16.40;53.60;;;;;;5052144;28;20626;-59
2022/01/30 07:41:33;;;;;;;5.40;1.75;;;16.50;53.70;;;;;;5051982;28;20321;-59
2022/01/30 07:44:02;;;;;;;3.05;1.75;;;16.60;53.70;;;;;;5052438;28;20642;-59
2022/01/30 07:46:28;;;;;;;4.13;1.67;;;16.70;53.50;;;;;;5052512;28;20195;-59
2022/01/30 07:48:54;;;;;;;2.88;1.85;;;16.80;53.40;;;;;;5051655;28;20183;-58
2022/01/30 07:51:20;;;;;;;2.78;1.40;;;16.90;53.20;;;;;;5056247;28;20217;-59
2022/01/30 07:53:45;;;;;;;4.78;1.60;;;16.90;53.10;;;;;;5056436;28;20173;-59
2022/01/30 07:56:12;;;;;;;2.00;1.20;;;17.00;53.00;;;;;;5055313;28;20527;-60
2022/01/30 07:58:37;;;;;;;4.10;1.77;;;17.10;53.00;;;;;;5056560;28;20602;-60
2022/01/30 08:01:03;;;;;;;4.72;1.75;;;17.20;52.80;;;;;;5056057;28;20199;-59
2022/01/30 08:03:29;;;;;;;3.20;1.70;;;17.40;52.60;;;;;;5055430;28;20634;-60
2022/01/30 08:05:54;;;;;;;2.45;1.63;;;17.60;52.40;;;;;;5056011;28;20175;-58
2022/01/30 08:08:20;;;;;;;3.10;1.40;;;17.80;52.20;;;;;;5056020;28;20253;-59
2022/01/30 08:10:45;;;;;;;5.68;1.63;;;17.90;51.90;;;;;;5055550;28;20172;-59
2022/01/30 08:13:11;;;;;;;3.22;1.35;;;18.00;51.60;;;;;;5055711;28;20175;-61
2022/01/30 08:15:36;;;;;;;4.20;1.65;;;18.10;51.50;;;;;;5055247;28;20602;-63
2022/01/30 08:18:02;;;;;;;4.97;1.92;;;18.10;52.10;;;;;;5055405;28;20673;-63
2022/01/30 08:20:28;;;;;;;4.80;1.80;;;18.20;51.60;;;;;;5055647;28;20254;-61
2022/01/30 08:22:55;;;;;;;4.50;1.63;;;18.20;51.50;;;;;;5054581;28;20179;-62
2022/01/30 08:25:21;;;;;;;4.65;1.83;;;18.30;51.70;;;;;;5055797;28;20175;-62
2022/01/30 08:27:47;;;;;;;6.13;2.38;;;18.30;51.80;;;;;;5055730;28;20260;-62
2022/01/30 08:30:12;;;;;;;6.57;2.28;;;18.30;51.80;;;;;;5054424;28;20171;-62
2022/01/30 08:32:45;;;;;;;5.00;1.92;;;18.30;51.80;;;;;;5055354;28;20202;-61
2022/01/30 08:35:14;;;;;;;5.57;2.38;;;18.30;52.10;;;;;;5054921;28;20187;-63
2022/01/30 08:37:40;;;;;;;4.22;2.05;;;18.40;52.40;;;;;;5054543;28;20183;-64
2022/01/30 08:40:07;;;;;;;4.80;1.95;;;18.50;52.30;;;;;;5054798;28;20646;-63
2022/01/30 08:42:33;;;;;;;4.22;2.03;;;18.40;52.20;;;;;;5055303;28;20179;-62
2022/01/30 08:44:58;;;;;;;3.70;1.90;;;18.40;52.30;;;;;;5054180;28;20267;-63
2022/01/30 08:47:25;;;;;;;6.55;2.00;;;18.40;52.40;;;;;;5055069;28;20233;-62
2022/01/30 08:49:50;;;;;;;4.20;1.77;;;18.40;52.40;;;;;;5054948;28;20673;-62
2022/01/30 08:52:19;;;;;;;3.85;1.83;;;18.40;52.50;;;;;;5054079;28;20235;-62
2022/01/30 08:54:50;;;;;;;6.47;1.63;;;18.50;52.50;;;;;;5055221;28;20171;-62
2022/01/30 08:57:15;;;;;;;3.50;1.58;;;18.40;52.50;;;;;;5053442;28;20660;-63
2022/01/30 08:59:41;;;;;;;5.82;2.28;;;18.50;52.50;;;;;;5054405;28;20175;-65
2022/01/30 09:02:07;;;;;;;5.13;1.88;;;18.40;52.60;;;;;;5053339;28;20171;-64
2022/01/30 09:04:32;;;;;;;4.25;1.80;;;18.50;52.70;;;;;;5054622;28;20552;-63
2022/01/30 09:06:58;;;;;;;9.05;2.78;;;18.40;52.60;;;;;;5053874;28;20239;-62
2022/01/30 09:09:23;;;;;;;6.57;1.92;;;18.50;52.90;;;;;;5054517;28;20167;-62
2022/01/30 09:11:49;;;;;;;5.47;2.45;;;18.50;52.70;;;;;;5054214;28;20182;-62
2022/01/30 09:14:15;;;;;;;4.28;1.85;;;18.60;52.60;;;;;;5054371;28;20171;-63
2022/01/30 09:16:41;;;;;;;6.63;2.25;;;18.50;52.60;;;;;;5054246;28;20257;-62
2022/01/30 09:19:07;;;;;;;4.57;2.00;;;18.50;52.50;;;;;;5062042;28;20181;-61
2022/01/30 09:21:32;;;;;;;5.72;2.10;;;18.50;52.50;;;;;;5062156;28;20170;-61
2022/01/30 09:23:58;;;;;;;4.50;1.65;;;18.50;52.60;;;;;;5074182;28;20641;-61
2022/01/30 09:26:23;;;;;;;5.78;2.35;;;18.40;52.60;;;;;;5049166;28;20203;-61
2022/01/30 09:28:49;;;;;;;4.63;1.55;;;18.40;52.80;;;;;;5034423;28;20222;-63
2022/01/30 09:31:14;;;;;;;4.90;2.10;;;18.30;52.80;;;;;;5034119;28;20222;-63
2022/01/30 09:33:40;;;;;;;5.13;2.42;;;18.40;52.80;;;;;;5038063;28;20202;-63
2022/01/30 09:36:06;;;;;;;4.47;2.13;;;18.40;52.80;;;;;;5074166;28;20644;-63
2022/01/30 09:38:31;;;;;;;4.38;1.60;;;18.40;52.80;;;;;;5074552;28;20261;-63
2022/01/30 09:40:57;;;;;;;5.88;2.00;;;18.40;52.80;;;;;;5073629;28;20167;-63
2022/01/30 09:43:23;;;;;;;3.58;1.48;;;18.30;52.90;;;;;;5072758;28;20182;-62
2022/01/30 09:45:52;;;;;;;5.80;1.90;;;18.20;53.00;;;;;;5073950;28;20175;-61
2022/01/30 09:48:18;;;;;;;4.45;1.75;;;18.20;53.20;;;;;;5071538;28;20213;-63
2022/01/30 09:50:43;;;;;;;5.22;1.95;;;18.10;53.20;;;;;;5071887;28;20174;-62
2022/01/30 09:53:12;;;;;;;4.82;2.20;;;18.10;53.40;;;;;;5053365;28;20276;-63
2022/01/30 09:55:37;;;;;;;5.50;2.40;;;18.00;53.50;;;;;;5052007;28;20175;-62
2022/01/30 09:58:04;;;;;;;3.25;1.63;;;18.00;53.50;;;;;;5052370;28;20171;-63
2022/01/30 10:00:32;;;;;;;4.97;2.22;;;18.00;53.50;;;;;;5053972;28;20202;-62
2022/01/30 10:02:58;;;;;;;3.63;1.90;;;18.00;53.50;;;;;;5052467;28;20585;-63
2022/01/30 10:05:23;;;;;;;4.00;2.03;;;18.10;53.40;;;;;;5053838;28;20668;-62
2022/01/30 10:07:57;;;;;;;3.65;1.90;;;18.10;53.20;;;;;;5053357;28;20272;-62
2022/01/30 10:10:28;;;;;;;4.68;1.70;;;18.10;53.10;;;;;;5053098;28;20662;-62
2022/01/30 10:13:14;;;;;;;5.18;2.10;;;18.00;53.20;;;;;;5052840;28;20256;-63
2022/01/30 10:15:54;;;;;;;5.35;2.00;;;18.00;53.40;;;;;;5052965;28;20175;-62
2022/01/30 10:18:20;;;;;;;4.03;1.92;;;17.90;53.40;;;;;;5053148;28;20198;-62
2022/01/30 10:20:45;;;;;;;5.70;1.85;;;17.90;53.60;;;;;;5053304;28;20225;-62
2022/01/30 10:23:12;;;;;;;4.03;1.88;;;17.90;53.60;;;;;;5052389;28;20179;-62
2022/01/30 10:25:55;;;;;;;5.65;2.30;;;17.90;53.60;;;;;;5061399;28;20202;-61
2022/01/30 10:28:31;;;;;;;3.83;1.70;;;17.90;53.40;;;;;;5073313;28;20302;-62
2022/01/30 10:31:06;;;;;;;5.57;2.10;;;17.90;53.40;;;;;;5072233;28;20174;-63
2022/01/30 10:33:49;;;;;;;4.65;2.30;;;17.90;53.40;;;;;;5073013;28;20571;-63
2022/01/30 10:36:19;;;;;;;5.30;2.05;;;17.80;53.40;;;;;;5072155;28;20637;-63
2022/01/30 10:38:52;;;;;;;5.03;2.08;;;17.80;53.40;;;;;;5073076;28;20253;-63
2022/01/30 10:41:20;;;;;;;2.83;1.75;;;17.70;53.50;;;;;;5073079;28;20179;-63
2022/01/30 10:44:03;;;;;;;4.53;2.05;;;17.70;53.50;;;;;;5072380;28;20185;-63
2022/01/30 10:46:48;;;;;;;5.03;2.08;;;17.80;53.60;;;;;;5072737;28;20263;-63
2022/01/30 10:49:18;;;;;;;4.35;1.92;;;17.80;53.60;;;;;;5072901;28;20178;-62
2022/01/30 10:51:59;;;;;;;4.50;1.80;;;17.80;53.50;;;;;;5072107;28;20241;-63
2022/01/30 10:54:32;;;;;;;4.18;1.70;;;17.90;53.30;;;;;;5072957;28;20178;-62
2022/01/30 10:57:09;;;;;;;5.18;2.22;;;17.90;53.20;;;;;;5071182;28;20193;-64
2022/01/30 10:59:38;;;;;;;5.85;2.22;;;17.90;53.20;;;;;;5072083;28;20185;-63
2022/01/30 11:02:14;;;;;;;5.22;2.08;;;17.90;53.30;;;;;;5072569;28;20174;-63
2022/01/30 11:04:40;;;;;;;5.10;2.28;;;17.90;53.30;;;;;;5071974;28;20217;-63
2022/01/30 11:07:05;;;;;;;3.95;1.67;;;17.80;53.20;;;;;;5072340;28;20222;-63
2022/01/30 11:09:35;;;;;;;4.00;1.88;;;17.80;53.40;;;;;;5072417;28;20720;-62
2022/01/30 11:12:07;;;;;;;6.60;2.00;;;17.70;53.40;;;;;;5071793;28;20687;-62
2022/01/30 11:14:40;;;;;;;5.88;2.60;;;17.70;53.40;;;;;;5072826;28;20235;-62
2022/01/30 11:17:08;;;;;;;6.32;2.58;;;17.80;53.40;;;;;;5072340;28;20182;-62
2022/01/30 11:19:42;;;;;;;4.90;2.08;;;17.80;54.00;;;;;;5071848;28;20178;-62
2022/01/30 11:22:09;;;;;;;3.80;1.90;;;17.80;53.40;;;;;;5072207;28;20170;-62
2022/01/30 11:24:45;;;;;;;4.65;2.13;;;17.80;53.40;;;;;;5071921;28;20179;-62
2022/01/30 11:27:11;;;;;;;6.35;2.38;;;17.80;53.30;;;;;;5050523;28;20218;-62
2022/01/30 11:29:42;;;;;;;5.03;2.45;;;17.80;53.40;;;;;;5052467;28;20179;-63
2022/01/30 11:32:08;;;;;;;5.20;2.17;;;17.70;53.50;;;;;;5052072;28;20183;-63
2022/01/30 11:34:38;;;;;;;4.65;2.28;;;17.80;53.50;;;;;;5051524;28;20527;-63
2022/01/30 11:37:05;;;;;;;7.15;2.28;;;17.70;53.40;;;;;;5052180;28;20651;-66
2022/01/30 11:39:30;;;;;;;5.95;2.22;;;17.80;53.50;;;;;;5050601;28;20630;-63
2022/01/30 11:42:11;;;;;;;5.65;2.10;;;17.80;53.40;;;;;;5050754;28;20177;-67
2022/01/30 11:44:44;;;;;;;6.47;2.83;;;17.80;53.50;;;;;;5052378;28;20580;-65
2022/01/30 11:47:09;;;;;;;6.65;2.28;;;17.80;53.50;;;;;;5051430;28;20284;-66
2022/01/30 11:49:39;;;;;;;5.63;2.30;;;17.90;53.50;;;;;;5052417;28;20582;-66
2022/01/30 11:52:06;;;;;;;4.95;2.13;;;17.90;53.40;;;;;;5051877;28;20242;-66
2022/01/30 11:54:46;;;;;;;6.40;2.97;;;17.90;53.40;;;;;;5051602;28;20175;-66
2022/01/30 11:57:21;;;;;;;7.70;2.35;;;17.90;53.30;;;;;;5051895;28;20758;-67
2022/01/30 11:59:53;;;;;;;7.15;3.47;;;17.90;53.40;;;;;;5051996;28;20276;-65
2022/01/30 12:02:28;;;;;;;6.10;2.28;;;17.90;53.40;;;;;;5051236;28;20668;-66
2022/01/30 12:04:58;;;;;;;6.32;2.72;;;17.90;54.10;;;;;;5051814;28;20254;-65
2022/01/30 12:07:45;;;;;;;6.20;2.25;;;17.80;53.50;;;;;;5052019;28;20215;-62
2022/01/30 12:10:20;;;;;;;7.95;2.85;;;17.90;53.50;;;;;;5051909;28;20544;-65
2022/01/30 12:12:49;;;;;;;6.50;2.80;;;17.90;53.50;;;;;;5051938;28;20649;-65
2022/01/30 12:15:34;;;;;;;7.00;3.15;;;17.80;53.40;;;;;;5051066;28;20225;-65
2022/01/30 12:18:00;;;;;;;8.07;3.17;;;17.80;53.30;;;;;;5051575;28;20175;-65
2022/01/30 12:20:26;;;;;;;7.00;3.15;;;17.80;53.40;;;;;;5051839;28;20336;-64
2022/01/30 12:22:52;;;;;;;5.38;2.55;;;17.80;53.30;;;;;;5051121;28;20183;-64
2022/01/30 12:25:24;;;;;;;7.85;3.03;;;17.70;53.30;;;;;;5057693;28;20189;-64
2022/01/30 12:27:50;;;;;;;7.53;2.78;;;17.70;53.40;;;;;;5071791;28;20221;-65
2022/01/30 12:30:47;;;;;;;5.28;2.42;;;17.70;53.40;;;;;;5070795;28;20220;-65
2022/01/30 12:33:33;;;;;;;6.15;2.30;;;17.70;53.20;;;;;;5066887;28;20543;-67
2022/01/30 12:36:00;;;;;;;9.50;3.42;;;17.70;53.20;;;;;;5072545;28;20178;-66
2022/01/30 12:38:33;;;;;;;6.25;2.45;;;17.80;53.20;;;;;;5075415;28;20175;-65
2022/01/30 12:40:59;;;;;;;5.65;2.53;;;17.80;53.10;;;;;;5075134;28;20178;-65
2022/01/30 12:43:30;;;;;;;8.98;2.53;;;17.80;53.00;;;;;;5074632;28;20212;-65
2022/01/30 12:46:09;;;;;;;8.15;3.40;;;17.80;52.80;;;;;;5075567;28;20182;-65
2022/01/30 12:48:35;;;;;;;9.13;2.90;;;17.90;52.90;;;;;;5075178;28;20244;-65
2022/01/30 12:51:05;;;;;;;10.38;3.70;;;17.80;52.90;;;;;;5074073;28;20202;-65
2022/01/30 12:53:35;;;;;;;8.27;2.95;;;17.80;52.90;;;;;;5075086;28;20237;-65
2022/01/30 12:56:01;;;;;;;8.38;3.10;;;17.80;52.80;;;;;;5074601;28;20182;-66
2022/01/30 12:58:33;;;;;;;8.15;2.78;;;17.80;52.70;;;;;;5074343;28;20232;-65
2022/01/30 13:01:25;;;;;;;8.32;3.00;;;17.80;52.80;;;;;;5073725;28;20603;-66
2022/01/30 13:04:13;;;;;;;8.55;3.00;;;17.80;52.70;;;;;;5073990;28;20233;-66
2022/01/30 13:06:41;;;;;;;6.72;2.83;;;17.90;52.70;;;;;;5075059;28;20210;-65
2022/01/30 13:09:07;;;;;;;10.73;2.95;;;17.90;52.60;;;;;;5074672;28;20178;-65
2022/01/30 13:11:33;;;;;;;7.28;3.10;;;18.00;52.60;;;;;;5074347;28;20542;-65
2022/01/30 13:14:03;;;;;;;8.82;3.03;;;18.00;52.50;;;;;;5074438;28;20170;-64
2022/01/30 13:16:32;;;;;;;9.70;3.95;;;18.00;52.50;;;;;;5074534;28;20206;-65
2022/01/30 13:18:58;;;;;;;9.35;3.30;;;18.00;52.40;;;;;;5073474;28;20174;-64
2022/01/30 13:21:31;;;;;;;6.88;2.95;;;18.00;52.30;;;;;;5074739;28;20178;-64
2022/01/30 13:23:56;;;;;;;7.43;3.08;;;18.00;52.30;;;;;;5074562;28;20174;-64
2022/01/30 13:26:32;;;;;;;10.15;2.92;;;18.00;52.30;;;;;;5058977;28;20657;-64
2022/01/30 13:28:59;;;;;;;6.63;3.15;;;18.00;52.20;;;;;;5054182;28;20187;-65
2022/01/30 13:31:25;;;;;;;5.70;2.67;;;18.10;52.30;;;;;;5054558;28;20183;-67
2022/01/30 13:34:06;;;;;;;6.28;3.08;;;18.00;52.20;;;;;;5053648;28;20587;-67
2022/01/30 13:36:32;;;;;;;7.00;3.00;;;18.00;52.20;;;;;;5054299;28;20175;-66
2022/01/30 13:38:58;;;;;;;7.80;3.55;;;18.00;52.30;;;;;;5053008;28;20183;-67